createdAt,value
2022-09-22T00:01:32.604Z,99111.56
2022-09-22T00:04:03.643Z,99107.22
2022-09-22T00:06:40.671Z,99113.53
2022-09-22T00:09:11.915Z,99113.72
2022-09-22T00:11:45.861Z,99115.72
2022-09-22T00:14:16.633Z,99111.31
2022-09-22T00:16:53.986Z,99117.50
2022-09-22T00:19:26.745Z,99122.69
2022-09-22T00:21:56.911Z,99123.56
2022-09-22T00:24:24.430Z,99121.94
2022-09-22T00:26:57.283Z,99122.03
2022-09-22T00:29:27.347Z,99123.97
2022-09-22T00:31:54.883Z,99116.22
2022-09-22T00:34:26.877Z,99119.75
2022-09-22T00:36:54.025Z,99115.34
2022-09-22T00:39:20.960Z,99108.50
2022-09-22T00:41:50.955Z,99110.34
2022-09-22T00:44:30.668Z,99112.16
2022-09-22T00:47:17.527Z,99102.44
2022-09-22T00:49:57.397Z,99108.56
2022-09-22T00:52:28.923Z,99105.88
2022-09-22T00:55:00.838Z,99108.56
2022-09-22T00:57:35.057Z,99107.78
2022-09-22T01:00:04.826Z,99107.00
2022-09-22T01:02:32.198Z,99107.00
2022-09-22T01:04:59.468Z,99107.16
2022-09-22T01:07:32.604Z,99102.75
2022-09-22T01:10:00.571Z,99106.28
2022-09-22T01:12:32.562Z,99106.19
2022-09-22T01:15:18.990Z,99105.34
2022-09-22T01:18:19.133Z,99104.59
2022-09-22T01:20:49.211Z,99103.72
2022-09-22T01:23:48.944Z,99102.78
2022-09-22T01:26:42.538Z,99102.78
2022-09-22T01:29:28.180Z,99105.50
2022-09-22T01:32:06.645Z,99094.94
2022-09-22T01:35:17.186Z,99091.31
2022-09-22T01:38:08.122Z,99089.50
2022-09-22T01:40:42.686Z,99090.50
2022-09-22T01:43:15.645Z,99095.00
2022-09-22T01:45:46.665Z,99097.69
2022-09-22T01:48:28.012Z,99091.53
2022-09-22T01:51:06.992Z,99087.94
2022-09-22T01:53:42.595Z,99088.94
2022-09-22T01:56:13.900Z,99090.69
2022-09-22T01:58:48.564Z,99089.75
2022-09-22T02:01:19.610Z,99093.34
2022-09-22T02:04:09.464Z,99089.81
2022-09-22T02:06:43.273Z,99086.38
2022-09-22T02:09:15.512Z,99080.22
2022-09-22T02:11:42.884Z,99086.47
2022-09-22T02:14:11.929Z,99083.00
2022-09-22T02:16:38.774Z,99077.69
2022-09-22T02:19:19.550Z,99082.09
2022-09-22T02:21:47.937Z,99076.91
2022-09-22T02:24:34.466Z,99072.50
2022-09-22T02:27:36.573Z,99078.75
2022-09-22T02:30:09.485Z,99068.28
2022-09-22T02:32:41.166Z,99069.16
2022-09-22T02:35:09.898Z,99065.75
2022-09-22T02:38:15.869Z,99062.19
2022-09-22T02:41:01.373Z,99059.69
2022-09-22T02:43:40.883Z,99067.69
2022-09-22T02:46:27.545Z,99070.38
2022-09-22T02:49:02.390Z,99073.00
2022-09-22T02:51:33.111Z,99071.28
2022-09-22T02:54:02.066Z,99058.91
2022-09-22T02:56:29.051Z,99054.50
2022-09-22T02:58:58.425Z,99058.91
2022-09-22T03:01:28.319Z,99054.47
2022-09-22T03:03:55.263Z,99056.22
2022-09-22T03:06:22.033Z,99056.25
2022-09-22T03:08:54.504Z,99050.06
2022-09-22T03:11:21.245Z,99056.19
2022-09-22T03:13:47.956Z,99049.97
2022-09-22T03:16:14.856Z,99049.06
2022-09-22T03:18:44.521Z,99045.59
2022-09-22T03:21:17.197Z,99045.63
2022-09-22T03:23:43.935Z,99039.44
2022-09-22T03:26:10.607Z,99035.09
2022-09-22T03:28:37.273Z,99039.53
2022-09-22T03:31:06.859Z,99041.34
2022-09-22T03:33:33.573Z,99041.34
2022-09-22T03:36:04.407Z,99041.38
2022-09-22T03:38:31.928Z,99039.63
2022-09-22T03:41:01.307Z,99036.97
2022-09-22T03:43:28.111Z,99037.00
2022-09-22T03:45:59.269Z,99036.16
2022-09-22T03:48:28.750Z,99029.97
2022-09-22T03:50:56.416Z,99033.50
2022-09-22T03:53:24.945Z,99031.78
2022-09-22T03:55:52.113Z,99030.81
2022-09-22T03:58:21.701Z,99030.81
2022-09-22T04:00:49.856Z,99021.91
2022-09-22T04:03:19.405Z,99026.31
2022-09-22T04:05:54.355Z,99024.56
2022-09-22T04:08:24.288Z,99020.19
2022-09-22T04:10:54.060Z,99023.69
2022-09-22T04:13:22.529Z,99020.19
2022-09-22T04:15:51.985Z,99025.50
2022-09-22T04:18:18.681Z,99022.75
2022-09-22T04:20:46.275Z,99028.97
2022-09-22T04:23:16.050Z,99024.56
2022-09-22T04:25:45.476Z,99023.72
2022-09-22T04:28:12.190Z,99019.34
2022-09-22T04:30:39.665Z,99020.28
2022-09-22T04:33:08.298Z,99027.38
2022-09-22T04:35:35.484Z,99018.53
2022-09-22T04:38:02.178Z,99024.72
2022-09-22T04:40:30.443Z,99022.13
2022-09-22T04:42:57.842Z,99021.25
2022-09-22T04:45:25.127Z,99020.41
2022-09-22T04:47:53.899Z,99024.88
2022-09-22T04:50:23.982Z,99026.69
2022-09-22T04:52:53.880Z,99031.97
2022-09-22T04:55:24.005Z,99032.00
2022-09-22T04:57:53.984Z,99028.53
2022-09-22T05:00:22.444Z,99030.22
2022-09-22T05:02:50.212Z,99028.44
2022-09-22T05:05:17.457Z,99033.69
2022-09-22T05:07:56.447Z,99029.38
2022-09-22T05:10:25.388Z,99033.75
2022-09-22T05:12:55.536Z,99027.59
2022-09-22T05:15:25.304Z,99040.75
2022-09-22T05:17:55.750Z,99031.06
2022-09-22T05:20:22.725Z,99028.38
2022-09-22T05:22:50.398Z,99031.91
2022-09-22T05:25:18.946Z,99033.75
2022-09-22T05:27:51.702Z,99032.88
2022-09-22T05:30:21.541Z,99034.59
2022-09-22T05:32:52.557Z,99045.25
2022-09-22T05:35:24.002Z,99042.59
2022-09-22T05:37:57.482Z,99042.59
2022-09-22T05:40:29.115Z,99042.63
2022-09-22T05:42:55.895Z,99047.03
2022-09-22T05:45:22.602Z,99044.41
2022-09-22T05:47:50.768Z,99042.66
2022-09-22T05:50:21.839Z,99045.34
2022-09-22T05:52:52.971Z,99039.09
2022-09-22T05:55:20.505Z,99037.19
2022-09-22T05:57:47.448Z,99039.56
2022-09-22T06:00:18.118Z,99036.44
2022-09-22T06:02:48.039Z,99033.09
2022-09-22T06:05:19.244Z,99027.94
2022-09-22T06:07:55.288Z,99023.69
2022-09-22T06:10:22.778Z,99029.97
2022-09-22T06:12:54.292Z,99031.91
2022-09-22T06:15:20.963Z,99028.81
2022-09-22T06:17:52.468Z,99025.28
2022-09-22T06:20:19.117Z,99028.34
2022-09-22T06:22:45.866Z,99022.47
2022-09-22T06:25:13.834Z,99024.41
2022-09-22T06:27:41.956Z,99012.31
2022-09-22T06:30:12.250Z,99011.13
2022-09-22T06:32:39.523Z,99002.41
2022-09-22T06:35:07.449Z,99006.22
2022-09-22T06:37:35.819Z,98991.81
2022-09-22T06:40:02.571Z,98997.78
2022-09-22T06:42:30.033Z,99003.91
2022-09-22T06:44:57.559Z,98992.66
2022-09-22T06:47:25.183Z,98992.06
2022-09-22T06:49:54.844Z,98988.22
2022-09-22T06:52:27.626Z,98984.41
2022-09-22T06:54:56.245Z,98999.03
2022-09-22T06:57:22.940Z,98985.91
2022-09-22T06:59:51.272Z,98997.84
2022-09-22T07:02:18.575Z,98984.91
2022-09-22T07:04:46.626Z,98983.69
2022-09-22T07:07:13.297Z,98975.88
2022-09-22T07:09:39.960Z,98986.34
2022-09-22T07:12:08.097Z,98983.03
2022-09-22T07:14:35.689Z,98986.69
2022-09-22T07:17:02.486Z,98978.84
2022-09-22T07:19:36.512Z,98979.69
2022-09-22T07:22:03.559Z,98978.38
2022-09-22T07:24:35.846Z,98973.47
2022-09-22T07:27:04.990Z,98973.22
2022-09-22T07:29:32.140Z,98967.28
2022-09-22T07:32:00.220Z,98965.72
2022-09-22T07:34:27.119Z,98970.75
2022-09-22T07:36:54.993Z,98969.66
2022-09-22T07:39:21.824Z,98963.75
2022-09-22T07:41:48.506Z,98962.34
2022-09-22T07:44:40.896Z,98963.13
2022-09-22T07:47:10.335Z,98969.63
2022-09-22T07:49:37.808Z,98961.03
2022-09-22T07:52:09.546Z,98967.41
2022-09-22T07:54:37.232Z,98974.88
2022-09-22T07:57:11.020Z,98969.72
2022-09-22T07:59:41.216Z,98973.13
2022-09-22T08:02:09.092Z,98972.72
2022-09-22T08:04:35.981Z,98973.91
2022-09-22T08:07:05.964Z,98967.91
2022-09-22T08:09:33.739Z,98966.31
2022-09-22T08:12:02.719Z,98967.06
2022-09-22T08:14:30.317Z,98969.44
2022-09-22T08:16:57.286Z,98974.59
2022-09-22T08:19:24.109Z,98963.72
2022-09-22T08:21:54.625Z,98959.56
2022-09-22T08:24:22.869Z,98963.41
2022-09-22T08:26:53.353Z,98967.31
2022-09-22T08:29:21.872Z,98959.84
2022-09-22T08:31:49.637Z,98967.09
2022-09-22T08:34:17.924Z,98956.38
2022-09-22T08:36:49.183Z,98959.34
2022-09-22T08:39:20.750Z,98958.25
2022-09-22T08:42:09.184Z,98952.38
2022-09-22T08:44:52.210Z,98956.69
2022-09-22T08:47:45.263Z,98958.84
2022-09-22T08:50:44.264Z,98945.50
2022-09-22T08:53:16.338Z,98950.84
2022-09-22T08:55:49.286Z,98946.84
2022-09-22T08:58:37.332Z,98952.84
2022-09-22T09:01:25.238Z,98954.88
2022-09-22T09:04:38.993Z,98940.53
2022-09-22T09:07:14.572Z,98937.28
2022-09-22T09:10:15.454Z,98942.69
2022-09-22T09:12:42.347Z,98946.38
2022-09-22T09:15:26.517Z,98933.59
2022-09-22T09:17:58.962Z,98933.56
2022-09-22T09:20:42.138Z,98941.72
2022-09-22T09:23:18.115Z,98941.16
2022-09-22T09:25:56.001Z,98949.38
2022-09-22T09:28:44.420Z,98941.03
2022-09-22T09:31:31.614Z,98940.13
2022-09-22T09:34:05.770Z,98942.34
2022-09-22T09:36:37.863Z,98942.16
2022-09-22T09:39:17.656Z,98939.88
2022-09-22T09:41:49.189Z,98942.22
2022-09-22T09:44:39.927Z,98938.88
2022-09-22T09:47:28.275Z,98939.31
2022-09-22T09:49:57.904Z,98931.47
2022-09-22T09:52:29.371Z,98928.75
2022-09-22T09:54:56.314Z,98928.31
2022-09-22T09:57:27.545Z,98926.09
2022-09-22T10:00:31.903Z,98922.59
2022-09-22T10:03:23.867Z,98920.09
2022-09-22T10:06:10.970Z,98919.44
2022-09-22T10:08:49.302Z,98924.81
2022-09-22T10:11:16.305Z,98927.44
2022-09-22T10:13:45.113Z,98917.81
2022-09-22T10:16:33.374Z,98924.56
2022-09-22T10:19:17.398Z,98916.41
2022-09-22T10:21:44.080Z,98916.41
2022-09-22T10:24:31.513Z,98916.78
2022-09-22T10:27:00.400Z,98919.75
2022-09-22T10:29:32.854Z,98909.81
2022-09-22T10:32:05.228Z,98912.88
2022-09-22T10:34:43.630Z,98907.91
2022-09-22T10:37:15.411Z,98898.53
2022-09-22T10:39:54.463Z,98901.94
2022-09-22T10:42:36.566Z,98894.19
2022-09-22T10:45:10.346Z,98896.78
2022-09-22T10:48:10.597Z,98898.59
2022-09-22T10:50:47.503Z,98883.75
2022-09-22T10:53:18.528Z,98887.59
2022-09-22T10:55:52.895Z,98885.09
2022-09-22T10:58:27.999Z,98884.28
2022-09-22T11:01:13.259Z,98870.47
2022-09-22T11:04:14.970Z,98867.59
2022-09-22T11:07:21.406Z,98869.41
2022-09-22T11:10:21.943Z,98874.16
2022-09-22T11:13:10.739Z,98872.84
2022-09-22T11:15:56.432Z,98873.75
2022-09-22T11:18:39.851Z,98866.63
2022-09-22T11:21:18.319Z,98859.94
2022-09-22T11:24:12.713Z,98867.88
2022-09-22T11:26:59.770Z,98871.16
2022-09-22T11:29:57.542Z,98861.22
2022-09-22T11:32:37.422Z,98864.44
2022-09-22T11:35:24.531Z,98865.84
2022-09-22T11:38:13.139Z,98858.69
2022-09-22T11:40:51.938Z,98854.88
2022-09-22T11:43:46.513Z,98860.41
2022-09-22T11:46:40.631Z,98855.00
2022-09-22T11:49:24.947Z,98860.69
2022-09-22T11:52:25.228Z,98851.28
2022-09-22T11:55:02.345Z,98858.72
2022-09-22T11:57:34.642Z,98849.69
2022-09-22T12:00:19.620Z,98833.25
2022-09-22T12:03:01.904Z,98835.84
2022-09-22T12:05:32.260Z,98839.31
2022-09-22T12:08:07.470Z,98836.38
2022-09-22T12:10:42.251Z,98832.16
2022-09-22T12:13:23.019Z,98824.91
2022-09-22T12:16:13.708Z,98826.19
2022-09-22T12:19:00.711Z,98829.97
2022-09-22T12:21:36.145Z,98826.25
2022-09-22T12:24:09.708Z,98819.75
2022-09-22T12:26:39.705Z,98825.91
2022-09-22T12:29:16.182Z,98826.78
2022-09-22T12:31:47.289Z,98822.88
2022-09-22T12:34:31.342Z,98817.22
2022-09-22T12:37:21.488Z,98804.72
2022-09-22T12:39:51.130Z,98809.03
2022-09-22T12:42:37.716Z,98810.19
2022-09-22T12:45:20.141Z,98805.81
2022-09-22T12:47:53.291Z,98804.09
2022-09-22T12:50:23.462Z,98800.47
2022-09-22T12:52:51.243Z,98799.97
2022-09-22T12:55:30.307Z,98803.72
2022-09-22T12:58:02.402Z,98800.63
2022-09-22T13:00:41.117Z,98803.44
2022-09-22T13:03:26.418Z,98797.75
2022-09-22T13:06:00.866Z,98792.53
2022-09-22T13:08:31.048Z,98793.88
2022-09-22T13:11:05.603Z,98799.81
2022-09-22T13:13:36.773Z,98788.88
2022-09-22T13:16:24.326Z,98807.78
2022-09-22T13:18:52.073Z,98798.03
2022-09-22T13:21:22.123Z,98796.75
2022-09-22T13:24:02.681Z,98787.50
2022-09-22T13:26:41.019Z,98786.94
2022-09-22T13:29:21.052Z,98780.00
2022-09-22T13:31:48.306Z,98785.19
2022-09-22T13:34:35.721Z,98779.16
2022-09-22T13:37:10.782Z,98780.13
2022-09-22T13:39:46.887Z,98786.75
2022-09-22T13:42:24.891Z,98778.75
2022-09-22T13:45:24.184Z,98765.91
2022-09-22T13:48:02.673Z,98765.91
2022-09-22T13:50:48.372Z,98763.59
2022-09-22T13:53:19.658Z,98750.50
2022-09-22T13:55:51.678Z,98754.44
2022-09-22T13:58:29.550Z,98758.19
2022-09-22T14:01:13.066Z,98749.50
2022-09-22T14:03:44.851Z,98752.44
2022-09-22T14:06:33.556Z,98757.34
2022-09-22T14:09:03.449Z,98758.25
2022-09-22T14:11:32.247Z,98756.22
2022-09-22T14:14:02.684Z,98759.19
2022-09-22T14:16:32.371Z,98759.25
2022-09-22T14:19:16.540Z,98750.69
2022-09-22T14:21:55.972Z,98752.31
2022-09-22T14:24:23.325Z,98742.38
2022-09-22T14:26:54.801Z,98746.31
2022-09-22T14:29:31.149Z,98743.00
2022-09-22T14:32:11.818Z,98736.03
2022-09-22T14:34:40.613Z,98744.88
2022-09-22T14:37:34.348Z,98744.31
2022-09-22T14:40:04.711Z,98735.84
2022-09-22T14:42:34.335Z,98737.56
2022-09-22T14:45:10.519Z,98733.78
2022-09-22T14:47:42.372Z,98733.13
2022-09-22T14:50:21.196Z,98728.53
2022-09-22T14:52:58.336Z,98731.31
2022-09-22T14:55:39.897Z,98732.44
2022-09-22T14:58:14.933Z,98724.78
2022-09-22T15:01:15.945Z,98722.03
2022-09-22T15:03:56.365Z,98720.84
2022-09-22T15:06:23.408Z,98722.53
2022-09-22T15:08:53.213Z,98731.13
2022-09-22T15:11:20.070Z,98715.34
2022-09-22T15:13:51.289Z,98721.56
2022-09-22T15:16:33.708Z,98722.38
2022-09-22T15:19:06.022Z,98724.03
2022-09-22T15:21:37.166Z,98721.28
2022-09-22T15:24:07.529Z,98724.03
2022-09-22T15:26:35.194Z,98716.56
2022-09-22T15:29:04.818Z,98715.59
2022-09-22T15:31:32.340Z,98713.72
2022-09-22T15:34:03.058Z,98717.47
2022-09-22T15:36:33.882Z,98715.34
2022-09-22T15:39:21.906Z,98700.81
2022-09-22T15:41:50.882Z,98711.00
2022-09-22T15:44:17.785Z,98706.88
2022-09-22T15:46:48.481Z,98703.41
2022-09-22T15:49:20.988Z,98703.66
2022-09-22T15:51:51.600Z,98699.06
2022-09-22T15:54:21.764Z,98693.06
2022-09-22T15:56:52.441Z,98695.59
2022-09-22T15:59:23.896Z,98707.81
2022-09-22T16:01:51.946Z,98701.16
2022-09-22T16:04:20.060Z,98690.97
2022-09-22T16:06:55.114Z,98689.81
2022-09-22T16:09:22.081Z,98698.09
2022-09-22T16:11:51.360Z,98699.66
2022-09-22T16:14:18.620Z,98696.59
2022-09-22T16:16:45.550Z,98701.78
2022-09-22T16:19:13.882Z,98709.00
2022-09-22T16:21:49.163Z,98700.25
2022-09-22T16:24:16.173Z,98706.09
2022-09-22T16:26:45.361Z,98703.09
2022-09-22T16:29:12.071Z,98696.88
2022-09-22T16:31:39.150Z,98697.75
2022-09-22T16:34:09.668Z,98698.38
2022-09-22T16:36:39.839Z,98692.84
2022-09-22T16:39:06.558Z,98703.63
2022-09-22T16:41:38.812Z,98707.94
2022-09-22T16:44:06.304Z,98700.69
2022-09-22T16:46:39.057Z,98700.09
2022-09-22T16:49:12.867Z,98704.84
2022-09-22T16:51:48.735Z,98697.59
2022-09-22T16:54:16.566Z,98705.19
2022-09-22T16:56:46.257Z,98705.66
2022-09-22T16:59:18.350Z,98708.41
2022-09-22T17:01:48.403Z,98710.09
2022-09-22T17:04:19.027Z,98709.47
2022-09-22T17:06:46.910Z,98707.13
2022-09-22T17:09:16.745Z,98701.78
2022-09-22T17:11:45.626Z,98711.03
2022-09-22T17:14:15.407Z,98713.78
2022-09-22T17:16:48.012Z,98713.25
2022-09-22T17:19:20.712Z,98713.06
2022-09-22T17:21:50.678Z,98719.72
2022-09-22T17:24:19.241Z,98714.03
2022-09-22T17:26:50.827Z,98709.41
2022-09-22T17:29:24.809Z,98716.88
2022-09-22T17:31:58.344Z,98718.13
2022-09-22T17:34:28.361Z,98723.34
2022-09-22T17:36:57.140Z,98729.34
2022-09-22T17:39:28.691Z,98725.31
2022-09-22T17:41:55.694Z,98727.03
2022-09-22T17:44:24.044Z,98720.00
2022-09-22T17:47:10.912Z,98725.69
2022-09-22T17:49:59.428Z,98725.34
2022-09-22T17:52:29.120Z,98730.69
2022-09-22T17:55:11.635Z,98727.31
2022-09-22T17:57:43.274Z,98727.81
2022-09-22T18:00:15.305Z,98724.50
2022-09-22T18:02:45.078Z,98726.03
2022-09-22T18:05:14.728Z,98724.59
2022-09-22T18:07:42.012Z,98723.09
2022-09-22T18:10:12.107Z,98725.03
2022-09-22T18:12:39.463Z,98726.38
2022-09-22T18:15:07.327Z,98724.47
2022-09-22T18:17:42.726Z,98726.25
2022-09-22T18:20:15.073Z,98727.19
2022-09-22T18:22:48.570Z,98732.75
2022-09-22T18:25:28.857Z,98724.81
2022-09-22T18:28:00.853Z,98739.56
2022-09-22T18:30:32.191Z,98733.38
2022-09-22T18:33:00.460Z,98733.47
2022-09-22T18:35:28.830Z,98739.91
2022-09-22T18:37:57.200Z,98742.06
2022-09-22T18:40:25.083Z,98742.16
2022-09-22T18:42:57.460Z,98736.41
2022-09-22T18:45:25.704Z,98742.88
2022-09-22T18:47:54.745Z,98757.25
2022-09-22T18:50:36.195Z,98756.59
2022-09-22T18:53:13.758Z,98757.69
2022-09-22T18:55:42.307Z,98753.59
2022-09-22T18:58:09.874Z,98759.13
2022-09-22T19:00:41.961Z,98760.31
2022-09-22T19:03:08.703Z,98756.84
2022-09-22T19:05:38.898Z,98762.38
2022-09-22T19:08:11.952Z,98761.63
2022-09-22T19:10:39.516Z,98766.19
2022-09-22T19:13:18.308Z,98763.88
2022-09-22T19:15:57.358Z,98760.91
2022-09-22T19:18:27.688Z,98753.94
2022-09-22T19:21:04.475Z,98760.22
2022-09-22T19:23:32.433Z,98761.91
2022-09-22T19:26:01.209Z,98757.66
2022-09-22T19:28:31.473Z,98764.00
2022-09-22T19:30:58.350Z,98759.66
2022-09-22T19:33:25.639Z,98759.81
2022-09-22T19:35:53.090Z,98759.19
2022-09-22T19:38:20.425Z,98756.69
2022-09-22T19:40:56.655Z,98752.56
2022-09-22T19:43:24.521Z,98755.41
2022-09-22T19:45:55.066Z,98752.84
2022-09-22T19:48:25.862Z,98750.47
2022-09-22T19:50:54.721Z,98757.66
2022-09-22T19:53:24.105Z,98747.09
2022-09-22T19:55:51.830Z,98743.88
2022-09-22T19:58:23.462Z,98736.81
2022-09-22T20:00:58.767Z,98733.44
2022-09-22T20:03:27.644Z,98737.25
2022-09-22T20:05:56.010Z,98741.84
2022-09-22T20:08:25.922Z,98740.94
2022-09-22T20:11:22.760Z,98729.44
2022-09-22T20:14:05.071Z,98728.47
2022-09-22T20:16:35.019Z,98723.34
2022-09-22T20:19:17.500Z,98722.94
2022-09-22T20:21:54.159Z,98726.59
2022-09-22T20:24:23.342Z,98724.22
2022-09-22T20:26:50.992Z,98730.06
2022-09-22T20:29:26.342Z,98723.22
2022-09-22T20:31:54.631Z,98722.50
2022-09-22T20:34:25.230Z,98708.53
2022-09-22T20:36:53.713Z,98712.22
2022-09-22T20:39:22.269Z,98708.81
2022-09-22T20:41:48.908Z,98703.50
2022-09-22T20:44:16.921Z,98705.63
2022-09-22T20:46:48.458Z,98705.94
2022-09-22T20:49:24.899Z,98706.03
2022-09-22T20:51:52.578Z,98699.81
2022-09-22T20:54:24.295Z,98705.16
2022-09-22T20:56:51.005Z,98699.22
2022-09-22T20:59:24.708Z,98698.41
2022-09-22T21:02:00.539Z,98697.91
2022-09-22T21:04:30.924Z,98701.38
2022-09-22T21:07:00.375Z,98699.44
2022-09-22T21:09:50.042Z,98696.38
2022-09-22T21:12:28.592Z,98688.44
2022-09-22T21:15:03.464Z,98690.44
2022-09-22T21:17:35.879Z,98694.34
2022-09-22T21:20:03.419Z,98684.81
2022-09-22T21:22:31.001Z,98683.94
2022-09-22T21:24:59.397Z,98688.75
2022-09-22T21:27:26.358Z,98682.78
2022-09-22T21:29:54.533Z,98689.97
2022-09-22T21:32:25.064Z,98688.06
2022-09-22T21:35:00.181Z,98684.41
2022-09-22T21:37:28.568Z,98687.41
2022-09-22T21:39:57.841Z,98679.34
2022-09-22T21:42:31.290Z,98675.97
2022-09-22T21:45:01.098Z,98672.59
2022-09-22T21:47:29.523Z,98678.91
2022-09-22T21:49:56.213Z,98683.59
2022-09-22T21:52:25.499Z,98681.91
2022-09-22T21:54:54.119Z,98683.09
2022-09-22T21:57:30.612Z,98673.44
2022-09-22T21:59:59.817Z,98672.63
2022-09-22T22:02:26.733Z,98670.19
2022-09-22T22:04:56.072Z,98667.72
2022-09-22T22:07:25.373Z,98668.81
2022-09-22T22:09:54.420Z,98666.97
2022-09-22T22:12:26.235Z,98664.78
2022-09-22T22:14:58.803Z,98664.41
2022-09-22T22:17:28.426Z,98661.75
2022-09-22T22:19:58.758Z,98666.13
2022-09-22T22:22:34.295Z,98668.78
2022-09-22T22:25:05.948Z,98669.00
2022-09-22T22:27:34.467Z,98666.50
2022-09-22T22:30:03.877Z,98661.94
2022-09-22T22:32:41.824Z,98666.59
2022-09-22T22:35:12.842Z,98664.03
2022-09-22T22:37:41.059Z,98664.06
2022-09-22T22:40:11.583Z,98663.16
2022-09-22T22:42:50.810Z,98661.66
2022-09-22T22:45:21.824Z,98657.38
2022-09-22T22:47:52.577Z,98659.91
2022-09-22T22:50:19.223Z,98664.38
2022-09-22T22:52:46.059Z,98662.44
2022-09-22T22:55:16.984Z,98661.38
2022-09-22T22:57:50.995Z,98655.88
2022-09-22T23:00:30.742Z,98656.97
2022-09-22T23:02:57.614Z,98654.50
2022-09-22T23:05:29.647Z,98653.81
2022-09-22T23:07:58.705Z,98647.06
2022-09-22T23:10:26.885Z,98644.31
2022-09-22T23:13:04.857Z,98653.22
2022-09-22T23:15:31.588Z,98644.31
2022-09-22T23:18:00.878Z,98646.16
2022-09-22T23:20:30.229Z,98651.41
2022-09-22T23:22:57.543Z,98638.88
2022-09-22T23:25:25.794Z,98642.59
2022-09-22T23:27:58.398Z,98643.50
2022-09-22T23:30:28.740Z,98640.78
2022-09-22T23:32:57.451Z,98632.81
2022-09-22T23:35:24.544Z,98625.03
2022-09-22T23:37:55.540Z,98620.88
2022-09-22T23:40:23.577Z,98628.16
2022-09-22T23:42:50.303Z,98625.63
2022-09-22T23:45:19.075Z,98626.41
2022-09-22T23:47:47.438Z,98618.94
2022-09-22T23:50:15.000Z,98619.63
2022-09-22T23:52:41.647Z,98614.44
2022-09-22T23:55:10.903Z,98614.22
2022-09-22T23:57:39.406Z,98620.31
